createdAt,value
2022-12-01T00:00:27.699Z,97837.72
2022-12-01T00:03:13.387Z,97830.88
2022-12-01T00:06:00.278Z,97833.63
2022-12-01T00:09:07.291Z,97837.06
2022-12-01T00:11:52.898Z,97829.38
2022-12-01T00:14:38.586Z,97825.13
2022-12-01T00:17:23.851Z,97822.84
2022-12-01T00:20:10.119Z,97816.31
2022-12-01T00:22:55.464Z,97817.13
2022-12-01T00:25:42.758Z,97813.69
2022-12-01T00:28:28.806Z,97809.59
2022-12-01T00:31:14.543Z,97804.50
2022-12-01T00:34:00.145Z,97813.84
2022-12-01T00:36:45.817Z,97819.06
2022-12-01T00:39:31.638Z,97816.00
2022-12-01T00:42:17.243Z,97822.19
2022-12-01T00:45:02.515Z,97822.84
2022-12-01T00:47:47.932Z,97826.47
2022-12-01T00:50:33.418Z,97826.09
2022-12-01T00:53:19.033Z,97835.94
2022-12-01T00:56:04.833Z,97832.81
2022-12-01T00:58:53.073Z,97831.34
2022-12-01T01:01:39.255Z,97839.50
2022-12-01T01:04:25.261Z,97829.38
2022-12-01T01:07:10.702Z,97829.69
2022-12-01T01:09:56.552Z,97817.78
2022-12-01T01:12:41.904Z,97818.25
2022-12-01T01:15:27.451Z,97820.38
2022-12-01T01:18:13.058Z,97819.56
2022-12-01T01:21:00.441Z,97825.75
2022-12-01T01:23:46.190Z,97820.69
2022-12-01T01:26:33.313Z,97819.69
2022-12-01T01:29:19.500Z,97823.63
2022-12-01T01:32:05.212Z,97825.56
2022-12-01T01:34:50.390Z,97820.69
2022-12-01T01:37:36.005Z,97826.38
2022-12-01T01:40:21.378Z,97825.72
2022-12-01T01:43:15.143Z,97822.78
2022-12-01T01:46:00.576Z,97824.09
2022-12-01T01:49:09.872Z,97819.50
2022-12-01T01:51:57.676Z,97821.09
2022-12-01T01:54:46.806Z,97833.00
2022-12-01T01:57:34.091Z,97827.59
2022-12-01T02:00:21.565Z,97828.06
2022-12-01T02:03:12.278Z,97827.72
2022-12-01T02:06:04.526Z,97820.38
2022-12-01T02:08:51.065Z,97821.00
2022-12-01T02:11:50.907Z,97823.25
2022-12-01T02:14:47.856Z,97813.44
2022-12-01T02:17:45.451Z,97802.50
2022-12-01T02:20:33.878Z,97809.97
2022-12-01T02:23:41.158Z,97809.78
2022-12-01T02:27:01.198Z,97808.75
2022-12-01T02:29:55.672Z,97805.78
2022-12-01T02:33:02.437Z,97808.06
2022-12-01T02:35:54.915Z,97810.00
2022-12-01T02:38:53.104Z,97803.13
2022-12-01T02:41:48.475Z,97805.09
2022-12-01T02:44:39.015Z,97810.31
2022-12-01T02:47:25.408Z,97808.69
2022-12-01T02:50:12.900Z,97807.19
2022-12-01T02:53:00.114Z,97811.41
2022-12-01T02:55:54.476Z,97808.00
2022-12-01T02:58:40.181Z,97821.22
2022-12-01T03:01:52.683Z,97814.81
2022-12-01T03:04:45.007Z,97816.53
2022-12-01T03:07:52.396Z,97806.41
2022-12-01T03:10:58.668Z,97803.94
2022-12-01T03:13:55.272Z,97798.56
2022-12-01T03:16:54.115Z,97802.31
2022-12-01T03:19:49.269Z,97802.47
2022-12-01T03:22:42.076Z,97808.97
2022-12-01T03:25:29.301Z,97806.00
2022-12-01T03:28:22.269Z,97799.44
2022-12-01T03:31:14.614Z,97800.88
2022-12-01T03:34:12.963Z,97797.88
2022-12-01T03:37:04.027Z,97808.63
2022-12-01T03:39:53.709Z,97807.00
2022-12-01T03:42:48.315Z,97806.19
2022-12-01T03:45:58.691Z,97807.97
2022-12-01T03:48:45.265Z,97808.91
2022-12-01T03:52:01.087Z,97806.31
2022-12-01T03:54:54.972Z,97800.44
2022-12-01T03:57:56.527Z,97816.09
2022-12-01T04:00:42.032Z,97812.81
2022-12-01T04:03:28.246Z,97813.09
2022-12-01T04:06:14.688Z,97800.91
2022-12-01T04:08:59.874Z,97803.34
2022-12-01T04:12:04.080Z,97804.16
2022-12-01T04:14:50.119Z,97800.56
2022-12-01T04:17:36.076Z,97813.50
2022-12-01T04:20:22.419Z,97813.50
2022-12-01T04:23:08.024Z,97814.44
2022-12-01T04:26:00.089Z,97810.19
2022-12-01T04:28:45.375Z,97796.50
2022-12-01T04:31:31.502Z,97802.53
2022-12-01T04:34:17.248Z,97796.31
2022-12-01T04:37:03.875Z,97803.06
2022-12-01T04:39:50.114Z,97810.56
2022-12-01T04:42:38.637Z,97804.53
2022-12-01T04:45:24.425Z,97806.19
2022-12-01T04:48:09.834Z,97806.69
2022-12-01T04:50:55.238Z,97811.09
2022-12-01T04:53:40.525Z,97810.63
2022-12-01T04:56:26.151Z,97807.06
2022-12-01T04:59:12.226Z,97801.69
2022-12-01T05:01:57.870Z,97801.88
2022-12-01T05:04:48.008Z,97802.56
2022-12-01T05:07:33.382Z,97803.25
2022-12-01T05:10:19.251Z,97811.72
2022-12-01T05:13:05.872Z,97821.84
2022-12-01T05:15:51.463Z,97817.44
2022-12-01T05:18:37.046Z,97824.31
2022-12-01T05:21:22.782Z,97823.50
2022-12-01T05:24:09.708Z,97820.88
2022-12-01T05:26:55.120Z,97814.72
2022-12-01T05:29:40.691Z,97817.16
2022-12-01T05:32:26.212Z,97815.34
2022-12-01T05:35:11.519Z,97818.78
2022-12-01T05:37:57.106Z,97818.13
2022-12-01T05:40:42.653Z,97821.84
2022-12-01T05:43:29.620Z,97822.16
2022-12-01T05:46:15.503Z,97816.44
2022-12-01T05:49:01.003Z,97821.94
2022-12-01T05:51:46.705Z,97816.22
2022-12-01T05:54:32.090Z,97814.88
2022-12-01T05:57:17.455Z,97815.19
2022-12-01T06:00:05.827Z,97820.03
2022-12-01T06:02:56.724Z,97821.44
2022-12-01T06:05:42.156Z,97820.13
2022-12-01T06:08:27.832Z,97822.19
2022-12-01T06:11:13.559Z,97824.13
2022-12-01T06:13:58.891Z,97829.50
2022-12-01T06:16:44.471Z,97822.94
2022-12-01T06:19:29.701Z,97823.25
2022-12-01T06:22:15.260Z,97826.97
2022-12-01T06:25:00.756Z,97829.72
2022-12-01T06:27:46.259Z,97837.69
2022-12-01T06:30:31.890Z,97836.06
2022-12-01T06:33:18.066Z,97843.88
2022-12-01T06:36:06.938Z,97845.53
2022-12-01T06:38:52.553Z,97844.53
2022-12-01T06:41:38.301Z,97851.38
2022-12-01T06:44:23.960Z,97849.75
2022-12-01T06:47:09.512Z,97854.94
2022-12-01T06:49:55.016Z,97852.75
2022-12-01T06:52:40.755Z,97854.34
2022-12-01T06:55:26.368Z,97858.94
2022-12-01T06:58:12.157Z,97852.22
2022-12-01T07:01:00.807Z,97854.00
2022-12-01T07:03:50.906Z,97867.03
2022-12-01T07:06:36.824Z,97858.41
2022-12-01T07:09:24.724Z,97856.44
2022-12-01T07:12:10.266Z,97860.16
2022-12-01T07:14:55.522Z,97858.25
2022-12-01T07:17:40.925Z,97855.63
2022-12-01T07:20:26.350Z,97866.06
2022-12-01T07:23:11.840Z,97864.13
2022-12-01T07:26:26.591Z,97868.38
2022-12-01T07:29:12.227Z,97867.41
2022-12-01T07:31:57.697Z,97876.34
2022-12-01T07:34:43.538Z,97874.03
2022-12-01T07:37:28.728Z,97876.50
2022-12-01T07:40:14.769Z,97876.81
2022-12-01T07:43:00.447Z,97875.81
2022-12-01T07:45:46.115Z,97874.84
2022-12-01T07:48:31.671Z,97878.28
2022-12-01T07:51:17.490Z,97874.03
2022-12-01T07:54:04.855Z,97875.53
2022-12-01T07:56:50.128Z,97878.66
2022-12-01T07:59:35.662Z,97875.75
2022-12-01T08:02:21.371Z,97881.47
2022-12-01T08:05:07.793Z,97884.78
2022-12-01T08:07:54.054Z,97888.88
2022-12-01T08:10:39.390Z,97886.94
2022-12-01T08:13:24.933Z,97886.63
2022-12-01T08:16:15.461Z,97889.75
2022-12-01T08:19:00.851Z,97894.53
2022-12-01T08:21:46.334Z,97888.19
2022-12-01T08:24:31.809Z,97888.72
2022-12-01T08:27:17.240Z,97888.56
2022-12-01T08:30:02.774Z,97895.25
2022-12-01T08:32:48.155Z,97892.38
2022-12-01T08:35:36.277Z,97895.34
2022-12-01T08:38:21.914Z,97888.88
2022-12-01T08:41:09.156Z,97886.09
2022-12-01T08:43:58.413Z,97892.97
2022-12-01T08:46:44.898Z,97896.91
2022-12-01T08:49:30.379Z,97892.06
2022-12-01T08:52:15.824Z,97888.03
2022-12-01T08:55:01.489Z,97895.41
2022-12-01T08:57:46.908Z,97894.81
2022-12-01T09:00:32.242Z,97892.38
2022-12-01T09:03:17.906Z,97907.59
2022-12-01T09:06:08.363Z,97903.25
2022-12-01T09:08:53.726Z,97912.78
2022-12-01T09:11:40.211Z,97910.19
2022-12-01T09:14:25.676Z,97919.06
2022-12-01T09:17:11.415Z,97907.19
2022-12-01T09:19:56.727Z,97909.19
2022-12-01T09:22:42.410Z,97911.16
2022-12-01T09:25:28.474Z,97906.81
2022-12-01T09:28:14.219Z,97912.25
2022-12-01T09:31:11.346Z,97910.78
2022-12-01T09:33:59.393Z,97907.41
2022-12-01T09:36:46.126Z,97904.94
2022-12-01T09:39:31.682Z,97900.91
2022-12-01T09:42:18.803Z,97910.56
2022-12-01T09:45:05.497Z,97902.06
2022-12-01T09:47:54.383Z,97893.28
2022-12-01T09:50:39.485Z,97900.16
2022-12-01T09:53:28.938Z,97891.66
2022-12-01T09:56:22.351Z,97882.38
2022-12-01T09:59:14.469Z,97886.63
2022-12-01T10:02:03.369Z,97887.28
2022-12-01T10:04:52.564Z,97881.06
2022-12-01T10:07:49.243Z,97882.03
2022-12-01T10:10:43.050Z,97883.03
2022-12-01T10:13:29.238Z,97874.19
2022-12-01T10:16:24.745Z,97863.88
2022-12-01T10:19:47.940Z,97869.28
2022-12-01T10:22:33.342Z,97870.88
2022-12-01T10:25:25.697Z,97865.81
2022-12-01T10:28:29.775Z,97858.72
2022-12-01T10:31:31.190Z,97858.06
2022-12-01T10:34:21.637Z,97851.97
2022-12-01T10:37:21.052Z,97853.09
2022-12-01T10:40:15.965Z,97842.59
2022-12-01T10:43:02.323Z,97845.53
2022-12-01T10:45:48.110Z,97844.03
2022-12-01T10:48:51.356Z,97841.22
2022-12-01T10:51:56.716Z,97836.94
2022-12-01T10:54:41.855Z,97829.19
2022-12-01T10:57:30.624Z,97834.72
2022-12-01T11:00:51.405Z,97835.06
2022-12-01T11:03:33.705Z,97837.31
2022-12-01T11:06:25.641Z,97830.28
2022-12-01T11:09:26.371Z,97836.16
2022-12-01T11:12:17.546Z,97828.94
2022-12-01T11:15:04.912Z,97828.56
2022-12-01T11:18:01.429Z,97825.78
2022-12-01T11:20:47.089Z,97830.88
2022-12-01T11:23:36.489Z,97825.63
2022-12-01T11:26:28.685Z,97822.00
2022-12-01T11:29:30.432Z,97824.41
2022-12-01T11:32:24.298Z,97822.88
2022-12-01T11:35:13.042Z,97813.97
2022-12-01T11:41:26.969Z,97806.59
2022-12-01T11:47:27.847Z,97804.19
2022-12-01T11:50:25.766Z,97805.81
2022-12-01T11:53:31.684Z,97802.00
2022-12-01T11:56:23.811Z,97803.47
2022-12-01T11:59:15.047Z,97799.66
2022-12-01T12:02:03.441Z,97793.22
2022-12-01T12:05:08.015Z,97794.88
2022-12-01T12:08:13.902Z,97792.06
2022-12-01T12:11:05.270Z,97803.66
2022-12-01T12:14:26.463Z,97800.50
2022-12-01T12:17:41.473Z,97801.63
2022-12-01T12:20:36.746Z,97796.00
2022-12-01T12:23:44.827Z,97791.66
2022-12-01T12:26:51.813Z,97789.47
2022-12-01T12:30:15.386Z,97788.47
2022-12-01T12:33:38.570Z,97794.53
2022-12-01T12:36:30.581Z,97795.53
2022-12-01T12:39:38.233Z,97796.19
2022-12-01T12:42:26.720Z,97791.25
2022-12-01T12:45:25.054Z,97786.00
2022-12-01T12:48:18.167Z,97789.81
2022-12-01T12:51:09.891Z,97794.91
2022-12-01T12:54:27.932Z,97787.19
2022-12-01T12:57:45.252Z,97794.28
2022-12-01T13:00:31.053Z,97785.75
2022-12-01T13:03:34.179Z,97788.56
2022-12-01T13:06:32.907Z,97787.91
2022-12-01T13:09:23.530Z,97779.41
2022-12-01T13:12:19.378Z,97782.22
2022-12-01T13:15:17.632Z,97777.13
2022-12-01T13:18:04.757Z,97771.25
2022-12-01T13:20:53.750Z,97779.97
2022-12-01T13:23:40.039Z,97779.13
2022-12-01T13:26:25.957Z,97780.94
2022-12-01T13:29:17.325Z,97780.13
2022-12-01T13:32:03.342Z,97775.69
2022-12-01T13:34:49.116Z,97771.44
2022-12-01T13:37:38.362Z,97779.31
2022-12-01T13:40:25.430Z,97772.41
2022-12-01T13:43:20.077Z,97769.19
2022-12-01T13:46:05.907Z,97771.16
2022-12-01T13:48:55.329Z,97767.88
2022-12-01T13:52:29.239Z,97771.69
2022-12-01T13:55:15.386Z,97769.72
2022-12-01T13:58:01.424Z,97766.63
2022-12-01T14:00:47.110Z,97759.94
2022-12-01T14:03:39.601Z,97763.09
2022-12-01T14:06:31.057Z,97755.56
2022-12-01T14:09:33.452Z,97755.13
2022-12-01T14:12:34.514Z,97756.28
2022-12-01T14:15:40.348Z,97760.91
2022-12-01T14:18:34.173Z,97745.50
2022-12-01T14:21:44.956Z,97748.31
2022-12-01T14:24:40.564Z,97749.28
2022-12-01T14:27:39.608Z,97752.09
2022-12-01T14:30:45.169Z,97748.66
2022-12-01T14:33:40.683Z,97745.22
2022-12-01T14:36:42.258Z,97750.66
2022-12-01T14:39:32.110Z,97752.81
2022-12-01T14:42:51.876Z,97759.25
2022-12-01T14:45:49.982Z,97758.59
2022-12-01T14:48:43.147Z,97754.53
2022-12-01T14:51:33.055Z,97753.06
2022-12-01T14:54:29.027Z,97757.84
2022-12-01T14:57:18.735Z,97763.44
2022-12-01T15:00:04.991Z,97770.06
2022-12-01T15:02:56.649Z,97771.41
2022-12-01T15:05:43.560Z,97771.75
2022-12-01T15:08:42.124Z,97767.66
2022-12-01T15:11:30.321Z,97772.44
2022-12-01T15:14:29.449Z,97770.81
2022-12-01T15:17:37.222Z,97773.16
2022-12-01T15:20:31.734Z,97771.69
2022-12-01T15:23:17.327Z,97768.13
2022-12-01T15:26:03.684Z,97767.66
2022-12-01T15:28:49.398Z,97764.38
2022-12-01T15:31:35.906Z,97769.16
2022-12-01T15:34:25.069Z,97779.50
2022-12-01T15:37:23.022Z,97780.69
2022-12-01T15:40:59.560Z,97777.56
2022-12-01T15:43:28.267Z,97782.50
2022-12-01T15:46:20.010Z,97773.34
2022-12-01T15:49:08.649Z,97780.44
2022-12-01T15:51:56.144Z,97774.72
2022-12-01T15:54:47.988Z,97780.94
2022-12-01T15:57:35.362Z,97783.72
2022-12-01T16:00:22.468Z,97772.09
2022-12-01T16:03:15.133Z,97772.41
2022-12-01T16:06:00.949Z,97773.25
2022-12-01T16:09:36.038Z,97770.47
2022-12-01T16:12:27.466Z,97775.91
2022-12-01T16:15:22.316Z,97782.31
2022-12-01T16:18:28.848Z,97779.84
2022-12-01T16:21:14.309Z,97774.59
2022-12-01T16:24:05.834Z,97770.88
2022-12-01T16:27:17.270Z,97770.22
2022-12-01T16:30:08.288Z,97777.44
2022-12-01T16:33:05.442Z,97774.81
2022-12-01T16:35:52.162Z,97776.81
2022-12-01T16:38:37.962Z,97774.88
2022-12-01T16:41:38.321Z,97775.84
2022-12-01T16:44:28.835Z,97780.63
2022-12-01T16:47:20.937Z,97785.06
2022-12-01T16:50:06.840Z,97784.03
2022-12-01T16:52:52.335Z,97790.28
2022-12-01T16:55:37.772Z,97791.28
2022-12-01T16:58:23.818Z,97790.28
2022-12-01T17:01:09.125Z,97786.84
2022-12-01T17:03:54.833Z,97787.00
2022-12-01T17:06:40.199Z,97790.63
2022-12-01T17:09:26.018Z,97786.34
2022-12-01T17:12:11.537Z,97792.56
2022-12-01T17:14:56.780Z,97789.47
2022-12-01T17:17:43.075Z,97777.53
2022-12-01T17:20:28.324Z,97783.13
2022-12-01T17:23:13.642Z,97779.06
2022-12-01T17:26:00.470Z,97776.56
2022-12-01T17:28:45.751Z,97774.97
2022-12-01T17:31:31.283Z,97770.06
2022-12-01T17:34:16.683Z,97771.03
2022-12-01T17:37:02.121Z,97767.63
2022-12-01T17:39:48.244Z,97759.09
2022-12-01T17:42:34.937Z,97761.91
2022-12-01T17:45:20.132Z,97768.91
2022-12-01T17:48:09.064Z,97772.38
2022-12-01T17:50:54.650Z,97772.38
2022-12-01T17:53:40.669Z,97787.09
2022-12-01T17:56:26.027Z,97782.00
2022-12-01T17:59:11.843Z,97784.00
2022-12-01T18:01:57.925Z,97784.81
2022-12-01T18:04:43.705Z,97781.38
2022-12-01T18:07:30.100Z,97775.47
2022-12-01T18:10:15.584Z,97777.78
2022-12-01T18:13:01.158Z,97772.72
2022-12-01T18:15:47.063Z,97777.31
2022-12-01T18:18:32.727Z,97777.31
2022-12-01T18:21:20.604Z,97775.69
2022-12-01T18:24:08.861Z,97786.94
2022-12-01T18:26:54.700Z,97789.75
2022-12-01T18:29:40.730Z,97800.22
2022-12-01T18:32:26.394Z,97792.38
2022-12-01T18:35:12.621Z,97796.63
2022-12-01T18:37:58.313Z,97788.75
2022-12-01T18:40:44.731Z,97793.03
2022-12-01T18:43:32.331Z,97785.16
2022-12-01T18:46:19.650Z,97786.16
2022-12-01T18:49:06.840Z,97788.75
2022-12-01T18:51:52.374Z,97788.59
2022-12-01T18:54:38.097Z,97786.16
2022-12-01T18:57:23.900Z,97783.72
2022-12-01T19:00:10.244Z,97793.19
2022-12-01T19:02:56.336Z,97792.38
2022-12-01T19:05:42.109Z,97796.78
2022-12-01T19:08:27.529Z,97793.34
2022-12-01T19:11:13.156Z,97794.19
2022-12-01T19:13:59.037Z,97793.34
2022-12-01T19:16:46.020Z,97787.13
2022-12-01T19:19:37.338Z,97782.88
2022-12-01T19:22:23.616Z,97785.00
2022-12-01T19:25:11.606Z,97783.34
2022-12-01T19:27:57.156Z,97774.03
2022-12-01T19:30:47.922Z,97772.41
2022-12-01T19:33:34.980Z,97772.41
2022-12-01T19:36:23.879Z,97774.38
2022-12-01T19:39:09.775Z,97782.25
2022-12-01T19:41:57.144Z,97779.13
2022-12-01T19:44:42.984Z,97775.69
2022-12-01T19:47:33.287Z,97783.53
2022-12-01T19:50:19.398Z,97780.28
2022-12-01T19:53:05.100Z,97778.66
2022-12-01T19:55:50.687Z,97797.47
2022-12-01T19:58:36.326Z,97803.03
2022-12-01T20:01:22.232Z,97817.13
2022-12-01T20:04:08.084Z,97811.88
2022-12-01T20:06:53.672Z,97810.25
2022-12-01T20:09:39.780Z,97812.69
2022-12-01T20:12:25.467Z,97811.41
2022-12-01T20:15:11.580Z,97812.53
2022-12-01T20:17:57.064Z,97815.31
2022-12-01T20:20:42.669Z,97814.16
2022-12-01T20:23:28.450Z,97821.19
2022-12-01T20:26:15.301Z,97819.56
2022-12-01T20:29:04.899Z,97812.84
2022-12-01T20:31:52.321Z,97812.06
2022-12-01T20:34:38.259Z,97810.41
2022-12-01T20:37:23.509Z,97809.09
2022-12-01T20:40:10.042Z,97814.50
2022-12-01T20:42:55.591Z,97811.22
2022-12-01T20:45:41.303Z,97812.06
2022-12-01T20:48:26.751Z,97802.56
2022-12-01T20:51:14.944Z,97807.31
2022-12-01T20:54:26.892Z,97799.13
2022-12-01T20:57:07.651Z,97796.84
2022-12-01T20:59:53.183Z,97809.41
2022-12-01T21:02:39.553Z,97811.72
2022-12-01T21:05:26.089Z,97801.09
2022-12-01T21:08:13.708Z,97799.78
2022-12-01T21:11:05.367Z,97798.78
2022-12-01T21:13:50.894Z,97802.72
2022-12-01T21:16:38.340Z,97801.25
2022-12-01T21:19:45.506Z,97802.56
2022-12-01T21:22:31.151Z,97790.44
2022-12-01T21:25:22.847Z,97801.22
2022-12-01T21:28:28.274Z,97805.16
2022-12-01T21:31:15.571Z,97806.94
2022-12-01T21:34:02.206Z,97798.28
2022-12-01T21:36:49.363Z,97795.66
2022-12-01T21:39:35.278Z,97799.41
2022-12-01T21:42:25.462Z,97794.66
2022-12-01T21:45:32.222Z,97785.53
2022-12-01T21:48:23.150Z,97797.13
2022-12-01T21:51:25.066Z,97783.69
2022-12-01T21:54:15.591Z,97787.44
2022-12-01T21:57:01.342Z,97785.16
2022-12-01T21:59:46.712Z,97776.66
2022-12-01T22:02:50.770Z,97778.59
2022-12-01T22:06:13.592Z,97766.53
2022-12-01T22:08:57.772Z,97768.31
2022-12-01T22:11:47.715Z,97761.63
2022-12-01T22:14:35.641Z,97762.91
2022-12-01T22:17:22.503Z,97753.44
2022-12-01T22:20:22.473Z,97759.47
2022-12-01T22:23:12.679Z,97761.13
2022-12-01T22:25:58.495Z,97765.38
2022-12-01T22:28:44.582Z,97757.38
2022-12-01T22:31:31.716Z,97761.44
2022-12-01T22:34:20.346Z,97765.53
2022-12-01T22:37:19.550Z,97768.97
2022-12-01T22:40:34.130Z,97765.41
2022-12-01T22:43:27.376Z,97773.06
2022-12-01T22:46:33.011Z,97767.03
2022-12-01T22:49:23.880Z,97769.31
2022-12-01T22:52:30.586Z,97766.53
2022-12-01T22:55:19.891Z,97763.78
2022-12-01T22:58:23.676Z,97766.69
2022-12-01T23:01:28.327Z,97766.69
2022-12-01T23:04:27.449Z,97752.84
2022-12-01T23:07:35.633Z,97751.69
2022-12-01T23:10:24.277Z,97751.19
2022-12-01T23:13:16.305Z,97746.94
2022-12-01T23:16:01.979Z,97742.69
2022-12-01T23:18:47.798Z,97727.97
2022-12-01T23:21:33.487Z,97727.19
2022-12-01T23:24:19.156Z,97726.34
2022-12-01T23:27:06.911Z,97727.97
2022-12-01T23:29:52.079Z,97727.97
2022-12-01T23:32:37.919Z,97726.34
2022-12-01T23:35:23.306Z,97723.72
2022-12-01T23:38:18.658Z,97723.72
2022-12-01T23:41:25.466Z,97727.19
2022-12-01T23:44:41.401Z,97721.13
2022-12-01T23:47:29.538Z,97722.13
2022-12-01T23:50:41.586Z,97719.50
2022-12-01T23:53:30.187Z,97714.28
2022-12-01T23:56:27.721Z,97710.66
2022-12-01T23:59:14.474Z,97708.06
